sensor_id;sensor_type;location;lat;lon;timestamp;P1;durP1;ratioP1;P2;durP2;ratioP2
26050;SDS011;13825;53.496;10.020;2023-08-17T00:01:26;2.70;;;2.03;;
26050;SDS011;13825;53.496;10.020;2023-08-17T00:03:53;3.23;;;2.20;;
26050;SDS011;13825;53.496;10.020;2023-08-17T00:06:21;3.67;;;2.13;;
26050;SDS011;13825;53.496;10.020;2023-08-17T00:08:48;5.13;;;2.27;;
26050;SDS011;13825;53.496;10.020;2023-08-17T00:11:15;3.17;;;2.30;;
26050;SDS011;13825;53.496;10.020;2023-08-17T00:13:43;3.77;;;1.97;;
26050;SDS011;13825;53.496;10.020;2023-08-17T00:16:10;3.17;;;2.00;;
26050;SDS011;13825;53.496;10.020;2023-08-17T00:18:40;2.33;;;1.67;;
26050;SDS011;13825;53.496;10.020;2023-08-17T00:21:07;2.40;;;2.00;;
26050;SDS011;13825;53.496;10.020;2023-08-17T00:23:37;3.93;;;2.70;;
26050;SDS011;13825;53.496;10.020;2023-08-17T00:26:04;3.30;;;2.30;;
26050;SDS011;13825;53.496;10.020;2023-08-17T00:28:32;6.17;;;2.80;;
26050;SDS011;13825;53.496;10.020;2023-08-17T00:30:59;3.87;;;2.27;;
26050;SDS011;13825;53.496;10.020;2023-08-17T00:33:26;4.13;;;2.40;;
26050;SDS011;13825;53.496;10.020;2023-08-17T00:35:55;6.13;;;2.60;;
26050;SDS011;13825;53.496;10.020;2023-08-17T00:38:22;5.63;;;2.50;;
26050;SDS011;13825;53.496;10.020;2023-08-17T00:40:50;4.07;;;2.20;;
26050;SDS011;13825;53.496;10.020;2023-08-17T00:43:17;5.03;;;2.30;;
26050;SDS011;13825;53.496;10.020;2023-08-17T00:45:44;5.30;;;2.40;;
26050;SDS011;13825;53.496;10.020;2023-08-17T00:48:13;6.13;;;2.40;;
26050;SDS011;13825;53.496;10.020;2023-08-17T00:50:40;5.03;;;2.37;;
26050;SDS011;13825;53.496;10.020;2023-08-17T00:53:17;3.60;;;2.07;;
26050;SDS011;13825;53.496;10.020;2023-08-17T00:55:46;7.50;;;2.60;;
26050;SDS011;13825;53.496;10.020;2023-08-17T00:58:14;5.50;;;2.30;;
26050;SDS011;13825;53.496;10.020;2023-08-17T01:00:42;4.33;;;2.10;;
26050;SDS011;13825;53.496;10.020;2023-08-17T01:03:11;4.37;;;2.53;;
26050;SDS011;13825;53.496;10.020;2023-08-17T01:05:39;4.47;;;2.33;;
26050;SDS011;13825;53.496;10.020;2023-08-17T01:08:07;3.00;;;2.10;;
26050;SDS011;13825;53.496;10.020;2023-08-17T01:10:37;5.73;;;2.07;;
26050;SDS011;13825;53.496;10.020;2023-08-17T01:13:15;3.17;;;1.70;;
26050;SDS011;13825;53.496;10.020;2023-08-17T01:15:48;4.97;;;2.10;;
26050;SDS011;13825;53.496;10.020;2023-08-17T01:18:20;3.90;;;2.07;;
26050;SDS011;13825;53.496;10.020;2023-08-17T01:20:50;4.13;;;1.80;;
26050;SDS011;13825;53.496;10.020;2023-08-17T01:23:21;4.63;;;1.90;;
26050;SDS011;13825;53.496;10.020;2023-08-17T01:25:51;5.17;;;2.33;;
26050;SDS011;13825;53.496;10.020;2023-08-17T01:28:20;4.30;;;2.43;;
26050;SDS011;13825;53.496;10.020;2023-08-17T01:30:52;4.03;;;2.00;;
26050;SDS011;13825;53.496;10.020;2023-08-17T01:33:25;3.17;;;1.70;;
26050;SDS011;13825;53.496;10.020;2023-08-17T01:36:01;2.27;;;1.70;;
26050;SDS011;13825;53.496;10.020;2023-08-17T01:38:35;1.63;;;1.53;;
26050;SDS011;13825;53.496;10.020;2023-08-17T01:41:03;5.53;;;2.20;;
26050;SDS011;13825;53.496;10.020;2023-08-17T01:43:31;2.97;;;1.57;;
26050;SDS011;13825;53.496;10.020;2023-08-17T01:45:59;2.10;;;1.50;;
26050;SDS011;13825;53.496;10.020;2023-08-17T01:48:28;3.90;;;1.60;;
26050;SDS011;13825;53.496;10.020;2023-08-17T01:50:54;2.93;;;1.90;;
26050;SDS011;13825;53.496;10.020;2023-08-17T01:53:21;3.77;;;1.80;;
26050;SDS011;13825;53.496;10.020;2023-08-17T01:55:50;4.47;;;2.03;;
26050;SDS011;13825;53.496;10.020;2023-08-17T01:58:17;6.23;;;1.87;;
26050;SDS011;13825;53.496;10.020;2023-08-17T02:00:44;3.87;;;2.10;;
26050;SDS011;13825;53.496;10.020;2023-08-17T02:03:11;4.23;;;1.70;;
26050;SDS011;13825;53.496;10.020;2023-08-17T02:05:38;2.23;;;1.60;;
26050;SDS011;13825;53.496;10.020;2023-08-17T02:08:10;3.60;;;1.60;;
26050;SDS011;13825;53.496;10.020;2023-08-17T02:10:37;7.40;;;2.17;;
26050;SDS011;13825;53.496;10.020;2023-08-17T02:13:05;1.70;;;1.43;;
26050;SDS011;13825;53.496;10.020;2023-08-17T02:15:32;3.87;;;1.77;;
26050;SDS011;13825;53.496;10.020;2023-08-17T02:18:04;4.97;;;1.90;;
26050;SDS011;13825;53.496;10.020;2023-08-17T02:20:32;3.20;;;1.97;;
26050;SDS011;13825;53.496;10.020;2023-08-17T02:22:59;2.47;;;1.90;;
26050;SDS011;13825;53.496;10.020;2023-08-17T02:25:26;5.37;;;1.83;;
26050;SDS011;13825;53.496;10.020;2023-08-17T02:28:00;4.17;;;1.90;;
26050;SDS011;13825;53.496;10.020;2023-08-17T02:30:29;3.77;;;1.80;;
26050;SDS011;13825;53.496;10.020;2023-08-17T02:32:56;4.90;;;2.00;;
26050;SDS011;13825;53.496;10.020;2023-08-17T02:35:23;3.73;;;1.87;;
26050;SDS011;13825;53.496;10.020;2023-08-17T02:37:50;2.97;;;1.60;;
26050;SDS011;13825;53.496;10.020;2023-08-17T02:40:17;4.93;;;1.60;;
26050;SDS011;13825;53.496;10.020;2023-08-17T02:42:45;4.13;;;1.87;;
26050;SDS011;13825;53.496;10.020;2023-08-17T02:45:12;3.57;;;1.57;;
26050;SDS011;13825;53.496;10.020;2023-08-17T02:47:40;2.70;;;1.80;;
26050;SDS011;13825;53.496;10.020;2023-08-17T02:50:08;2.87;;;1.90;;
26050;SDS011;13825;53.496;10.020;2023-08-17T02:52:36;4.67;;;1.60;;
26050;SDS011;13825;53.496;10.020;2023-08-17T02:55:06;3.93;;;1.93;;
26050;SDS011;13825;53.496;10.020;2023-08-17T02:57:34;2.63;;;1.97;;
26050;SDS011;13825;53.496;10.020;2023-08-17T03:00:01;3.60;;;1.77;;
26050;SDS011;13825;53.496;10.020;2023-08-17T03:02:28;2.83;;;1.90;;
26050;SDS011;13825;53.496;10.020;2023-08-17T03:04:57;4.17;;;1.90;;
26050;SDS011;13825;53.496;10.020;2023-08-17T03:07:24;4.03;;;1.70;;
26050;SDS011;13825;53.496;10.020;2023-08-17T03:09:52;2.37;;;1.90;;
26050;SDS011;13825;53.496;10.020;2023-08-17T03:12:34;2.03;;;1.60;;
26050;SDS011;13825;53.496;10.020;2023-08-17T03:15:02;2.83;;;1.50;;
26050;SDS011;13825;53.496;10.020;2023-08-17T03:17:29;5.77;;;1.90;;
26050;SDS011;13825;53.496;10.020;2023-08-17T03:20:01;6.50;;;1.83;;
26050;SDS011;13825;53.496;10.020;2023-08-17T03:22:33;1.80;;;1.60;;
26050;SDS011;13825;53.496;10.020;2023-08-17T03:25:01;3.77;;;1.90;;
26050;SDS011;13825;53.496;10.020;2023-08-17T03:27:28;3.27;;;1.57;;
26050;SDS011;13825;53.496;10.020;2023-08-17T03:29:56;3.00;;;1.70;;
26050;SDS011;13825;53.496;10.020;2023-08-17T03:32:28;3.37;;;1.70;;
26050;SDS011;13825;53.496;10.020;2023-08-17T03:34:56;5.90;;;2.50;;
26050;SDS011;13825;53.496;10.020;2023-08-17T03:37:25;3.00;;;1.43;;
26050;SDS011;13825;53.496;10.020;2023-08-17T03:39:52;2.03;;;1.77;;
26050;SDS011;13825;53.496;10.020;2023-08-17T03:42:19;4.47;;;2.10;;
26050;SDS011;13825;53.496;10.020;2023-08-17T03:44:47;2.80;;;1.70;;
26050;SDS011;13825;53.496;10.020;2023-08-17T03:47:15;5.33;;;2.37;;
26050;SDS011;13825;53.496;10.020;2023-08-17T03:49:43;4.80;;;1.70;;
26050;SDS011;13825;53.496;10.020;2023-08-17T03:52:11;2.17;;;1.67;;
26050;SDS011;13825;53.496;10.020;2023-08-17T03:54:46;3.37;;;1.80;;
26050;SDS011;13825;53.496;10.020;2023-08-17T03:57:17;3.80;;;1.80;;
26050;SDS011;13825;53.496;10.020;2023-08-17T03:59:47;2.53;;;1.87;;
26050;SDS011;13825;53.496;10.020;2023-08-17T04:02:14;2.93;;;1.60;;
26050;SDS011;13825;53.496;10.020;2023-08-17T04:04:41;3.50;;;1.77;;
26050;SDS011;13825;53.496;10.020;2023-08-17T04:07:08;2.67;;;1.73;;
26050;SDS011;13825;53.496;10.020;2023-08-17T04:09:36;3.83;;;2.00;;
26050;SDS011;13825;53.496;10.020;2023-08-17T04:12:05;1.77;;;1.50;;
26050;SDS011;13825;53.496;10.020;2023-08-17T04:14:33;2.43;;;1.60;;
26050;SDS011;13825;53.496;10.020;2023-08-17T04:17:00;3.43;;;1.50;;
26050;SDS011;13825;53.496;10.020;2023-08-17T04:19:27;3.23;;;1.63;;
26050;SDS011;13825;53.496;10.020;2023-08-17T04:21:54;3.73;;;1.37;;
26050;SDS011;13825;53.496;10.020;2023-08-17T04:24:21;3.10;;;1.67;;
26050;SDS011;13825;53.496;10.020;2023-08-17T04:26:48;2.37;;;1.60;;
26050;SDS011;13825;53.496;10.020;2023-08-17T04:29:16;2.97;;;1.70;;
26050;SDS011;13825;53.496;10.020;2023-08-17T04:31:43;3.63;;;1.90;;
26050;SDS011;13825;53.496;10.020;2023-08-17T04:34:10;1.97;;;1.60;;
26050;SDS011;13825;53.496;10.020;2023-08-17T04:36:37;2.17;;;1.70;;
26050;SDS011;13825;53.496;10.020;2023-08-17T04:39:04;5.10;;;1.90;;
26050;SDS011;13825;53.496;10.020;2023-08-17T04:41:31;3.13;;;1.80;;
26050;SDS011;13825;53.496;10.020;2023-08-17T04:43:58;2.10;;;1.80;;
26050;SDS011;13825;53.496;10.020;2023-08-17T04:46:27;3.97;;;1.90;;
26050;SDS011;13825;53.496;10.020;2023-08-17T04:48:54;2.90;;;2.00;;
26050;SDS011;13825;53.496;10.020;2023-08-17T04:51:21;3.87;;;1.90;;
26050;SDS011;13825;53.496;10.020;2023-08-17T04:53:48;6.20;;;1.93;;
26050;SDS011;13825;53.496;10.020;2023-08-17T04:56:15;6.90;;;2.03;;
26050;SDS011;13825;53.496;10.020;2023-08-17T04:58:42;3.70;;;1.90;;
26050;SDS011;13825;53.496;10.020;2023-08-17T05:01:11;5.80;;;1.93;;
26050;SDS011;13825;53.496;10.020;2023-08-17T05:03:40;2.03;;;1.60;;
26050;SDS011;13825;53.496;10.020;2023-08-17T05:06:07;3.67;;;1.70;;
26050;SDS011;13825;53.496;10.020;2023-08-17T05:08:35;3.97;;;1.60;;
26050;SDS011;13825;53.496;10.020;2023-08-17T05:11:02;6.77;;;1.80;;
26050;SDS011;13825;53.496;10.020;2023-08-17T05:13:32;3.67;;;1.80;;
26050;SDS011;13825;53.496;10.020;2023-08-17T05:15:59;4.87;;;2.00;;
26050;SDS011;13825;53.496;10.020;2023-08-17T05:18:26;3.30;;;1.53;;
26050;SDS011;13825;53.496;10.020;2023-08-17T05:20:55;2.40;;;1.70;;
26050;SDS011;13825;53.496;10.020;2023-08-17T05:23:22;3.87;;;2.13;;
26050;SDS011;13825;53.496;10.020;2023-08-17T05:25:51;2.03;;;1.40;;
26050;SDS011;13825;53.496;10.020;2023-08-17T05:28:18;4.30;;;1.77;;
26050;SDS011;13825;53.496;10.020;2023-08-17T05:30:46;3.33;;;2.00;;
26050;SDS011;13825;53.496;10.020;2023-08-17T05:33:13;2.80;;;1.80;;
26050;SDS011;13825;53.496;10.020;2023-08-17T05:35:40;3.70;;;1.90;;
26050;SDS011;13825;53.496;10.020;2023-08-17T05:38:08;3.80;;;2.03;;
26050;SDS011;13825;53.496;10.020;2023-08-17T05:40:36;5.13;;;1.97;;
26050;SDS011;13825;53.496;10.020;2023-08-17T05:43:04;4.30;;;2.30;;
26050;SDS011;13825;53.496;10.020;2023-08-17T05:45:34;2.43;;;2.00;;
26050;SDS011;13825;53.496;10.020;2023-08-17T05:48:02;7.03;;;2.33;;
26050;SDS011;13825;53.496;10.020;2023-08-17T05:50:29;3.37;;;1.80;;
26050;SDS011;13825;53.496;10.020;2023-08-17T05:52:58;3.20;;;2.00;;
26050;SDS011;13825;53.496;10.020;2023-08-17T05:55:27;6.63;;;2.10;;
26050;SDS011;13825;53.496;10.020;2023-08-17T05:57:55;4.80;;;2.00;;
26050;SDS011;13825;53.496;10.020;2023-08-17T06:00:25;4.67;;;2.13;;
26050;SDS011;13825;53.496;10.020;2023-08-17T06:02:56;5.53;;;2.07;;
26050;SDS011;13825;53.496;10.020;2023-08-17T06:05:26;6.13;;;2.37;;
26050;SDS011;13825;53.496;10.020;2023-08-17T06:07:56;5.17;;;2.27;;
26050;SDS011;13825;53.496;10.020;2023-08-17T06:10:24;4.33;;;2.40;;
26050;SDS011;13825;53.496;10.020;2023-08-17T06:12:53;2.73;;;2.20;;
26050;SDS011;13825;53.496;10.020;2023-08-17T06:15:22;8.03;;;2.53;;
26050;SDS011;13825;53.496;10.020;2023-08-17T06:17:50;4.73;;;2.40;;
26050;SDS011;13825;53.496;10.020;2023-08-17T06:20:21;5.03;;;2.67;;
26050;SDS011;13825;53.496;10.020;2023-08-17T06:22:51;2.90;;;2.03;;
26050;SDS011;13825;53.496;10.020;2023-08-17T06:25:20;3.43;;;2.57;;
26050;SDS011;13825;53.496;10.020;2023-08-17T06:27:50;4.03;;;2.10;;
26050;SDS011;13825;53.496;10.020;2023-08-17T06:30:35;3.17;;;2.30;;
26050;SDS011;13825;53.496;10.020;2023-08-17T06:33:03;6.20;;;2.40;;
26050;SDS011;13825;53.496;10.020;2023-08-17T06:35:32;3.50;;;2.33;;
26050;SDS011;13825;53.496;10.020;2023-08-17T06:38:01;7.17;;;3.10;;
26050;SDS011;13825;53.496;10.020;2023-08-17T06:40:40;4.17;;;2.10;;
26050;SDS011;13825;53.496;10.020;2023-08-17T06:43:08;5.53;;;2.40;;
26050;SDS011;13825;53.496;10.020;2023-08-17T06:45:38;5.57;;;2.37;;
26050;SDS011;13825;53.496;10.020;2023-08-17T06:48:10;3.43;;;2.67;;
26050;SDS011;13825;53.496;10.020;2023-08-17T06:50:37;4.07;;;2.30;;
26050;SDS011;13825;53.496;10.020;2023-08-17T06:53:07;3.80;;;3.17;;
26050;SDS011;13825;53.496;10.020;2023-08-17T06:55:38;6.60;;;2.80;;
26050;SDS011;13825;53.496;10.020;2023-08-17T06:58:11;3.37;;;2.50;;
26050;SDS011;13825;53.496;10.020;2023-08-17T07:00:43;6.53;;;2.50;;
26050;SDS011;13825;53.496;10.020;2023-08-17T07:03:13;3.77;;;2.30;;
26050;SDS011;13825;53.496;10.020;2023-08-17T07:05:42;7.23;;;2.80;;
26050;SDS011;13825;53.496;10.020;2023-08-17T07:08:26;3.63;;;2.47;;
26050;SDS011;13825;53.496;10.020;2023-08-17T07:10:55;4.23;;;2.10;;
26050;SDS011;13825;53.496;10.020;2023-08-17T07:13:24;3.40;;;2.00;;
26050;SDS011;13825;53.496;10.020;2023-08-17T07:15:54;5.67;;;2.30;;
26050;SDS011;13825;53.496;10.020;2023-08-17T07:18:21;4.37;;;2.33;;
26050;SDS011;13825;53.496;10.020;2023-08-17T07:21:02;5.87;;;1.93;;
26050;SDS011;13825;53.496;10.020;2023-08-17T07:27:17;3.63;;;2.00;;
26050;SDS011;13825;53.496;10.020;2023-08-17T07:36:31;2.20;;;2.00;;
26050;SDS011;13825;53.496;10.020;2023-08-17T07:38:59;4.53;;;1.83;;
26050;SDS011;13825;53.496;10.020;2023-08-17T07:41:50;2.87;;;1.80;;
26050;SDS011;13825;53.496;10.020;2023-08-17T07:44:19;2.80;;;2.00;;
26050;SDS011;13825;53.496;10.020;2023-08-17T07:46:47;3.70;;;1.90;;
26050;SDS011;13825;53.496;10.020;2023-08-17T07:49:20;3.73;;;2.03;;
26050;SDS011;13825;53.496;10.020;2023-08-17T08:02:26;1.97;;;1.87;;
26050;SDS011;13825;53.496;10.020;2023-08-17T08:05:46;5.67;;;2.33;;
26050;SDS011;13825;53.496;10.020;2023-08-17T08:31:03;5.10;;;2.33;;
26050;SDS011;13825;53.496;10.020;2023-08-17T08:33:35;3.90;;;2.30;;
26050;SDS011;13825;53.496;10.020;2023-08-17T08:36:24;2.20;;;1.90;;
26050;SDS011;13825;53.496;10.020;2023-08-17T08:38:55;2.30;;;2.10;;
26050;SDS011;13825;53.496;10.020;2023-08-17T08:41:23;4.23;;;2.10;;
26050;SDS011;13825;53.496;10.020;2023-08-17T08:43:55;2.30;;;2.10;;
26050;SDS011;13825;53.496;10.020;2023-08-17T08:46:27;2.43;;;1.93;;
26050;SDS011;13825;53.496;10.020;2023-08-17T08:49:34;3.50;;;1.67;;
26050;SDS011;13825;53.496;10.020;2023-08-17T08:52:19;1.87;;;1.57;;
26050;SDS011;13825;53.496;10.020;2023-08-17T08:54:59;2.40;;;1.80;;
26050;SDS011;13825;53.496;10.020;2023-08-17T08:57:40;3.83;;;1.70;;
26050;SDS011;13825;53.496;10.020;2023-08-17T09:00:23;2.77;;;1.80;;
26050;SDS011;13825;53.496;10.020;2023-08-17T09:03:05;3.27;;;1.80;;
26050;SDS011;13825;53.496;10.020;2023-08-17T09:05:58;2.03;;;1.70;;
26050;SDS011;13825;53.496;10.020;2023-08-17T09:08:28;4.37;;;1.90;;
26050;SDS011;13825;53.496;10.020;2023-08-17T09:10:56;2.07;;;1.87;;
26050;SDS011;13825;53.496;10.020;2023-08-17T09:13:24;2.17;;;1.57;;
26050;SDS011;13825;53.496;10.020;2023-08-17T09:15:53;4.17;;;2.20;;
26050;SDS011;13825;53.496;10.020;2023-08-17T09:21:23;3.80;;;1.70;;
26050;SDS011;13825;53.496;10.020;2023-08-17T09:23:53;2.37;;;1.73;;
26050;SDS011;13825;53.496;10.020;2023-08-17T09:26:35;2.37;;;1.90;;
26050;SDS011;13825;53.496;10.020;2023-08-17T09:29:04;2.10;;;1.50;;
26050;SDS011;13825;53.496;10.020;2023-08-17T09:31:43;1.60;;;1.50;;
26050;SDS011;13825;53.496;10.020;2023-08-17T09:34:14;5.90;;;1.97;;
26050;SDS011;13825;53.496;10.020;2023-08-17T09:36:45;2.27;;;1.70;;
26050;SDS011;13825;53.496;10.020;2023-08-17T09:39:25;2.17;;;1.83;;
26050;SDS011;13825;53.496;10.020;2023-08-17T09:41:53;2.70;;;1.70;;
26050;SDS011;13825;53.496;10.020;2023-08-17T09:45:05;2.33;;;1.67;;
26050;SDS011;13825;53.496;10.020;2023-08-17T09:47:36;4.80;;;1.70;;
26050;SDS011;13825;53.496;10.020;2023-08-17T09:50:23;2.60;;;1.87;;
26050;SDS011;13825;53.496;10.020;2023-08-17T09:53:02;2.57;;;1.73;;
26050;SDS011;13825;53.496;10.020;2023-08-17T09:55:50;2.33;;;1.73;;
26050;SDS011;13825;53.496;10.020;2023-08-17T09:59:10;3.63;;;1.80;;
26050;SDS011;13825;53.496;10.020;2023-08-17T10:07:28;2.83;;;2.53;;
26050;SDS011;13825;53.496;10.020;2023-08-17T10:23:38;2.00;;;1.60;;
26050;SDS011;13825;53.496;10.020;2023-08-17T10:26:24;3.10;;;1.40;;
26050;SDS011;13825;53.496;10.020;2023-08-17T10:28:56;2.10;;;1.50;;
26050;SDS011;13825;53.496;10.020;2023-08-17T10:31:26;3.70;;;1.63;;
26050;SDS011;13825;53.496;10.020;2023-08-17T10:33:56;2.37;;;1.70;;
26050;SDS011;13825;53.496;10.020;2023-08-17T10:36:25;4.00;;;1.70;;
26050;SDS011;13825;53.496;10.020;2023-08-17T10:41:50;2.30;;;1.60;;
26050;SDS011;13825;53.496;10.020;2023-08-17T10:44:18;3.53;;;1.63;;
26050;SDS011;13825;53.496;10.020;2023-08-17T10:47:18;1.90;;;1.80;;
26050;SDS011;13825;53.496;10.020;2023-08-17T10:49:45;2.80;;;1.83;;
26050;SDS011;13825;53.496;10.020;2023-08-17T10:52:24;2.87;;;1.73;;
26050;SDS011;13825;53.496;10.020;2023-08-17T10:54:55;2.43;;;1.73;;
26050;SDS011;13825;53.496;10.020;2023-08-17T10:57:32;2.53;;;1.77;;
26050;SDS011;13825;53.496;10.020;2023-08-17T11:02:52;3.20;;;1.93;;
26050;SDS011;13825;53.496;10.020;2023-08-17T11:05:39;2.60;;;1.60;;
26050;SDS011;13825;53.496;10.020;2023-08-17T11:08:09;2.60;;;1.73;;
26050;SDS011;13825;53.496;10.020;2023-08-17T11:10:39;3.13;;;1.40;;
26050;SDS011;13825;53.496;10.020;2023-08-17T11:13:09;2.53;;;1.70;;
26050;SDS011;13825;53.496;10.020;2023-08-17T11:15:36;2.13;;;1.80;;
26050;SDS011;13825;53.496;10.020;2023-08-17T11:18:07;1.70;;;1.60;;
26050;SDS011;13825;53.496;10.020;2023-08-17T11:20:35;2.03;;;1.70;;
26050;SDS011;13825;53.496;10.020;2023-08-17T11:23:04;2.10;;;1.90;;
26050;SDS011;13825;53.496;10.020;2023-08-17T11:25:33;1.77;;;1.57;;
26050;SDS011;13825;53.496;10.020;2023-08-17T11:28:02;2.67;;;1.40;;
26050;SDS011;13825;53.496;10.020;2023-08-17T11:30:29;2.90;;;1.60;;
26050;SDS011;13825;53.496;10.020;2023-08-17T11:32:59;2.53;;;1.73;;
26050;SDS011;13825;53.496;10.020;2023-08-17T11:35:28;2.20;;;1.70;;
26050;SDS011;13825;53.496;10.020;2023-08-17T11:37:55;3.63;;;1.77;;
26050;SDS011;13825;53.496;10.020;2023-08-17T11:40:22;1.90;;;1.63;;
26050;SDS011;13825;53.496;10.020;2023-08-17T11:42:51;8.87;;;2.30;;
26050;SDS011;13825;53.496;10.020;2023-08-17T11:45:18;3.37;;;2.10;;
26050;SDS011;13825;53.496;10.020;2023-08-17T11:47:46;2.60;;;2.20;;
26050;SDS011;13825;53.496;10.020;2023-08-17T11:50:14;2.93;;;2.33;;
26050;SDS011;13825;53.496;10.020;2023-08-17T11:52:41;5.97;;;2.60;;
26050;SDS011;13825;53.496;10.020;2023-08-17T11:55:15;4.47;;;2.37;;
26050;SDS011;13825;53.496;10.020;2023-08-17T12:01:37;2.03;;;1.83;;
26050;SDS011;13825;53.496;10.020;2023-08-17T12:04:04;2.60;;;2.00;;
26050;SDS011;13825;53.496;10.020;2023-08-17T12:06:32;2.03;;;1.80;;
26050;SDS011;13825;53.496;10.020;2023-08-17T12:08:59;2.20;;;2.00;;
26050;SDS011;13825;53.496;10.020;2023-08-17T12:11:26;2.67;;;1.90;;
26050;SDS011;13825;53.496;10.020;2023-08-17T12:13:53;3.47;;;1.90;;
26050;SDS011;13825;53.496;10.020;2023-08-17T12:16:20;3.23;;;2.13;;
26050;SDS011;13825;53.496;10.020;2023-08-17T12:18:49;2.80;;;2.10;;
26050;SDS011;13825;53.496;10.020;2023-08-17T12:21:20;2.53;;;1.90;;
26050;SDS011;13825;53.496;10.020;2023-08-17T12:23:47;2.60;;;2.10;;
26050;SDS011;13825;53.496;10.020;2023-08-17T12:26:17;3.03;;;2.20;;
26050;SDS011;13825;53.496;10.020;2023-08-17T12:28:45;3.83;;;2.17;;
26050;SDS011;13825;53.496;10.020;2023-08-17T12:31:12;2.60;;;1.97;;
26050;SDS011;13825;53.496;10.020;2023-08-17T12:33:41;3.47;;;2.20;;
26050;SDS011;13825;53.496;10.020;2023-08-17T12:36:10;2.23;;;2.00;;
26050;SDS011;13825;53.496;10.020;2023-08-17T12:38:38;2.10;;;1.90;;
26050;SDS011;13825;53.496;10.020;2023-08-17T12:41:10;3.17;;;2.13;;
26050;SDS011;13825;53.496;10.020;2023-08-17T12:43:37;4.57;;;2.17;;
26050;SDS011;13825;53.496;10.020;2023-08-17T12:46:05;4.33;;;2.50;;
26050;SDS011;13825;53.496;10.020;2023-08-17T12:48:38;2.97;;;2.03;;
26050;SDS011;13825;53.496;10.020;2023-08-17T12:51:09;2.67;;;2.20;;
26050;SDS011;13825;53.496;10.020;2023-08-17T12:56:24;4.80;;;2.00;;
26050;SDS011;13825;53.496;10.020;2023-08-17T12:58:54;4.17;;;1.93;;
26050;SDS011;13825;53.496;10.020;2023-08-17T13:01:21;3.17;;;2.17;;
26050;SDS011;13825;53.496;10.020;2023-08-17T13:03:48;2.10;;;1.67;;
26050;SDS011;13825;53.496;10.020;2023-08-17T13:06:16;3.17;;;2.03;;
26050;SDS011;13825;53.496;10.020;2023-08-17T13:08:43;3.27;;;1.90;;
26050;SDS011;13825;53.496;10.020;2023-08-17T13:11:10;2.80;;;1.97;;
26050;SDS011;13825;53.496;10.020;2023-08-17T13:13:37;2.40;;;1.87;;
26050;SDS011;13825;53.496;10.020;2023-08-17T13:16:12;4.37;;;2.10;;
26050;SDS011;13825;53.496;10.020;2023-08-17T13:18:43;3.33;;;1.97;;
26050;SDS011;13825;53.496;10.020;2023-08-17T13:21:21;4.33;;;2.10;;
26050;SDS011;13825;53.496;10.020;2023-08-17T13:23:56;2.60;;;2.17;;
26050;SDS011;13825;53.496;10.020;2023-08-17T13:26:34;1.70;;;1.60;;
26050;SDS011;13825;53.496;10.020;2023-08-17T13:29:36;4.37;;;2.00;;
26050;SDS011;13825;53.496;10.020;2023-08-17T13:32:30;2.80;;;1.83;;
26050;SDS011;13825;53.496;10.020;2023-08-17T13:35:12;2.00;;;1.73;;
26050;SDS011;13825;53.496;10.020;2023-08-17T13:38:10;3.27;;;1.80;;
26050;SDS011;13825;53.496;10.020;2023-08-17T13:41:02;1.70;;;1.47;;
26050;SDS011;13825;53.496;10.020;2023-08-17T13:44:02;3.37;;;1.60;;
26050;SDS011;13825;53.496;10.020;2023-08-17T14:43:07;1.87;;;1.60;;
26050;SDS011;13825;53.496;10.020;2023-08-17T14:46:21;3.03;;;1.90;;
26050;SDS011;13825;53.496;10.020;2023-08-17T14:52:32;2.97;;;1.60;;
26050;SDS011;13825;53.496;10.020;2023-08-17T14:55:36;4.10;;;1.40;;
26050;SDS011;13825;53.496;10.020;2023-08-17T14:58:59;3.20;;;1.60;;
26050;SDS011;13825;53.496;10.020;2023-08-17T15:02:03;3.30;;;2.00;;
26050;SDS011;13825;53.496;10.020;2023-08-17T15:04:42;4.87;;;2.10;;
26050;SDS011;13825;53.496;10.020;2023-08-17T15:07:36;3.73;;;2.00;;
26050;SDS011;13825;53.496;10.020;2023-08-17T15:10:19;7.70;;;1.73;;
26050;SDS011;13825;53.496;10.020;2023-08-17T15:12:47;4.63;;;1.87;;
26050;SDS011;13825;53.496;10.020;2023-08-17T15:15:14;2.07;;;1.70;;
26050;SDS011;13825;53.496;10.020;2023-08-17T15:17:41;4.00;;;2.07;;
26050;SDS011;13825;53.496;10.020;2023-08-17T15:20:08;4.37;;;2.27;;
26050;SDS011;13825;53.496;10.020;2023-08-17T15:22:35;4.60;;;2.20;;
26050;SDS011;13825;53.496;10.020;2023-08-17T15:25:07;1.57;;;1.37;;
26050;SDS011;13825;53.496;10.020;2023-08-17T15:31:01;3.33;;;1.83;;
26050;SDS011;13825;53.496;10.020;2023-08-17T15:33:56;6.57;;;3.23;;
26050;SDS011;13825;53.496;10.020;2023-08-17T15:36:23;12.27;;;5.87;;
26050;SDS011;13825;53.496;10.020;2023-08-17T15:38:56;7.53;;;4.00;;
26050;SDS011;13825;53.496;10.020;2023-08-17T15:41:50;6.40;;;3.20;;
26050;SDS011;13825;53.496;10.020;2023-08-17T15:44:25;3.60;;;2.33;;
26050;SDS011;13825;53.496;10.020;2023-08-17T15:46:57;4.73;;;2.93;;
26050;SDS011;13825;53.496;10.020;2023-08-17T15:49:31;5.93;;;2.60;;
26050;SDS011;13825;53.496;10.020;2023-08-17T15:52:04;3.07;;;2.27;;
26050;SDS011;13825;53.496;10.020;2023-08-17T15:54:31;7.37;;;3.23;;
26050;SDS011;13825;53.496;10.020;2023-08-17T15:56:58;7.63;;;2.43;;
26050;SDS011;13825;53.496;10.020;2023-08-17T15:59:26;4.17;;;1.80;;
26050;SDS011;13825;53.496;10.020;2023-08-17T16:01:53;5.00;;;2.60;;
26050;SDS011;13825;53.496;10.020;2023-08-17T16:04:20;3.33;;;2.20;;
26050;SDS011;13825;53.496;10.020;2023-08-17T16:06:52;3.83;;;2.07;;
26050;SDS011;13825;53.496;10.020;2023-08-17T16:09:35;3.80;;;1.90;;
26050;SDS011;13825;53.496;10.020;2023-08-17T16:12:18;2.97;;;1.70;;
26050;SDS011;13825;53.496;10.020;2023-08-17T16:15:02;4.30;;;2.10;;
26050;SDS011;13825;53.496;10.020;2023-08-17T16:17:57;5.57;;;1.70;;
26050;SDS011;13825;53.496;10.020;2023-08-17T16:20:39;3.83;;;1.70;;
26050;SDS011;13825;53.496;10.020;2023-08-17T16:23:34;2.20;;;1.67;;
26050;SDS011;13825;53.496;10.020;2023-08-17T16:33:11;6.70;;;1.90;;
26050;SDS011;13825;53.496;10.020;2023-08-17T16:35:48;9.17;;;1.90;;
26050;SDS011;13825;53.496;10.020;2023-08-17T16:45:01;3.57;;;1.70;;
26050;SDS011;13825;53.496;10.020;2023-08-17T16:47:58;2.03;;;1.70;;
26050;SDS011;13825;53.496;10.020;2023-08-17T16:50:55;1.70;;;1.40;;
26050;SDS011;13825;53.496;10.020;2023-08-17T16:53:25;3.13;;;1.83;;
26050;SDS011;13825;53.496;10.020;2023-08-17T16:55:58;4.07;;;1.90;;
26050;SDS011;13825;53.496;10.020;2023-08-17T16:58:36;3.50;;;1.80;;
26050;SDS011;13825;53.496;10.020;2023-08-17T17:01:06;4.07;;;1.80;;
26050;SDS011;13825;53.496;10.020;2023-08-17T17:03:48;4.77;;;2.10;;
26050;SDS011;13825;53.496;10.020;2023-08-17T17:06:19;4.50;;;1.90;;
26050;SDS011;13825;53.496;10.020;2023-08-17T17:08:46;7.40;;;1.97;;
26050;SDS011;13825;53.496;10.020;2023-08-17T17:11:12;4.47;;;2.17;;
26050;SDS011;13825;53.496;10.020;2023-08-17T17:13:39;6.00;;;2.07;;
26050;SDS011;13825;53.496;10.020;2023-08-17T17:16:06;5.03;;;2.30;;
26050;SDS011;13825;53.496;10.020;2023-08-17T17:18:33;2.43;;;1.80;;
26050;SDS011;13825;53.496;10.020;2023-08-17T17:21:00;4.13;;;2.03;;
26050;SDS011;13825;53.496;10.020;2023-08-17T17:23:28;4.67;;;1.80;;
26050;SDS011;13825;53.496;10.020;2023-08-17T17:25:55;2.20;;;1.90;;
26050;SDS011;13825;53.496;10.020;2023-08-17T17:28:22;5.20;;;2.07;;
26050;SDS011;13825;53.496;10.020;2023-08-17T17:30:49;6.33;;;2.23;;
26050;SDS011;13825;53.496;10.020;2023-08-17T17:33:16;4.73;;;2.10;;
26050;SDS011;13825;53.496;10.020;2023-08-17T17:35:43;4.83;;;2.33;;
26050;SDS011;13825;53.496;10.020;2023-08-17T17:38:10;9.30;;;3.10;;